sensor_id;sensor_type;location;lat;lon;timestamp;P1;durP1;ratioP1;P2;durP2;ratioP2
72621;SDS011;60665;53.506;9.582;2023-10-08T00:00:59;8.30;;;2.00;;
72621;SDS011;60665;53.506;9.582;2023-10-08T00:03:27;6.85;;;1.73;;
72621;SDS011;60665;53.506;9.582;2023-10-08T00:05:54;6.28;;;1.70;;
72621;SDS011;60665;53.506;9.582;2023-10-08T00:08:20;5.45;;;2.03;;
72621;SDS011;60665;53.506;9.582;2023-10-08T00:10:46;9.43;;;1.85;;
72621;SDS011;60665;53.506;9.582;2023-10-08T00:13:12;6.82;;;1.88;;
72621;SDS011;60665;53.506;9.582;2023-10-08T00:15:40;8.38;;;2.10;;
72621;SDS011;60665;53.506;9.582;2023-10-08T00:18:17;6.22;;;1.63;;
72621;SDS011;60665;53.506;9.582;2023-10-08T00:20:47;3.92;;;1.30;;
72621;SDS011;60665;53.506;9.582;2023-10-08T00:23:32;9.27;;;1.95;;
72621;SDS011;60665;53.506;9.582;2023-10-08T00:26:00;7.55;;;1.52;;
72621;SDS011;60665;53.506;9.582;2023-10-08T00:28:31;6.20;;;1.80;;
72621;SDS011;60665;53.506;9.582;2023-10-08T00:30:57;7.18;;;1.80;;
72621;SDS011;60665;53.506;9.582;2023-10-08T00:33:30;6.57;;;1.75;;
72621;SDS011;60665;53.506;9.582;2023-10-08T00:35:56;5.35;;;1.45;;
72621;SDS011;60665;53.506;9.582;2023-10-08T00:38:21;6.93;;;2.03;;
72621;SDS011;60665;53.506;9.582;2023-10-08T00:40:47;7.60;;;1.90;;
72621;SDS011;60665;53.506;9.582;2023-10-08T00:43:31;8.02;;;1.67;;
72621;SDS011;60665;53.506;9.582;2023-10-08T00:46:02;6.28;;;1.90;;
72621;SDS011;60665;53.506;9.582;2023-10-08T00:48:29;4.90;;;1.40;;
72621;SDS011;60665;53.506;9.582;2023-10-08T00:51:00;6.03;;;1.67;;
72621;SDS011;60665;53.506;9.582;2023-10-08T00:53:52;9.02;;;2.42;;
72621;SDS011;60665;53.506;9.582;2023-10-08T00:56:26;6.72;;;1.40;;
72621;SDS011;60665;53.506;9.582;2023-10-08T00:59:09;5.22;;;1.50;;
72621;SDS011;60665;53.506;9.582;2023-10-08T01:01:38;5.35;;;1.80;;
72621;SDS011;60665;53.506;9.582;2023-10-08T01:04:04;6.35;;;1.70;;
72621;SDS011;60665;53.506;9.582;2023-10-08T01:06:36;7.05;;;2.00;;
72621;SDS011;60665;53.506;9.582;2023-10-08T01:09:04;5.88;;;1.70;;
72621;SDS011;60665;53.506;9.582;2023-10-08T01:11:42;6.07;;;1.63;;
72621;SDS011;60665;53.506;9.582;2023-10-08T01:14:14;5.53;;;1.63;;
72621;SDS011;60665;53.506;9.582;2023-10-08T01:16:40;6.90;;;1.98;;
72621;SDS011;60665;53.506;9.582;2023-10-08T01:19:10;6.97;;;1.95;;
72621;SDS011;60665;53.506;9.582;2023-10-08T01:21:39;5.28;;;1.80;;
72621;SDS011;60665;53.506;9.582;2023-10-08T01:24:05;7.60;;;1.60;;
72621;SDS011;60665;53.506;9.582;2023-10-08T01:26:35;5.82;;;1.77;;
72621;SDS011;60665;53.506;9.582;2023-10-08T01:29:04;6.25;;;1.95;;
72621;SDS011;60665;53.506;9.582;2023-10-08T01:31:33;7.22;;;2.03;;
72621;SDS011;60665;53.506;9.582;2023-10-08T01:33:59;6.18;;;1.70;;
72621;SDS011;60665;53.506;9.582;2023-10-08T01:36:26;7.18;;;1.58;;
72621;SDS011;60665;53.506;9.582;2023-10-08T01:38:51;7.60;;;1.90;;
72621;SDS011;60665;53.506;9.582;2023-10-08T01:41:17;6.18;;;1.83;;
72621;SDS011;60665;53.506;9.582;2023-10-08T01:44:05;9.25;;;1.90;;
72621;SDS011;60665;53.506;9.582;2023-10-08T01:46:33;4.80;;;1.73;;
72621;SDS011;60665;53.506;9.582;2023-10-08T01:48:59;4.78;;;1.48;;
72621;SDS011;60665;53.506;9.582;2023-10-08T01:51:29;6.78;;;1.75;;
72621;SDS011;60665;53.506;9.582;2023-10-08T01:54:06;7.25;;;1.75;;
72621;SDS011;60665;53.506;9.582;2023-10-08T01:56:39;5.65;;;1.55;;
72621;SDS011;60665;53.506;9.582;2023-10-08T01:59:12;4.55;;;1.60;;
72621;SDS011;60665;53.506;9.582;2023-10-08T02:01:42;6.22;;;1.55;;
72621;SDS011;60665;53.506;9.582;2023-10-08T02:04:09;5.43;;;1.63;;
72621;SDS011;60665;53.506;9.582;2023-10-08T02:06:38;8.32;;;1.70;;
72621;SDS011;60665;53.506;9.582;2023-10-08T02:09:05;8.55;;;2.08;;
72621;SDS011;60665;53.506;9.582;2023-10-08T02:11:40;4.45;;;1.60;;
72621;SDS011;60665;53.506;9.582;2023-10-08T02:14:10;6.93;;;1.70;;
72621;SDS011;60665;53.506;9.582;2023-10-08T02:16:36;6.18;;;2.03;;
72621;SDS011;60665;53.506;9.582;2023-10-08T02:19:02;6.55;;;1.95;;
72621;SDS011;60665;53.506;9.582;2023-10-08T02:21:28;5.53;;;1.55;;
72621;SDS011;60665;53.506;9.582;2023-10-08T02:23:54;3.67;;;1.30;;
72621;SDS011;60665;53.506;9.582;2023-10-08T02:26:19;6.60;;;1.60;;
72621;SDS011;60665;53.506;9.582;2023-10-08T02:28:45;5.75;;;1.50;;
72621;SDS011;60665;53.506;9.582;2023-10-08T02:31:10;5.45;;;1.27;;
72621;SDS011;60665;53.506;9.582;2023-10-08T02:33:36;4.80;;;1.25;;
72621;SDS011;60665;53.506;9.582;2023-10-08T02:36:02;5.13;;;1.15;;
72621;SDS011;60665;53.506;9.582;2023-10-08T02:38:29;5.85;;;1.50;;
72621;SDS011;60665;53.506;9.582;2023-10-08T02:40:54;3.78;;;0.93;;
72621;SDS011;60665;53.506;9.582;2023-10-08T02:43:21;6.63;;;1.20;;
72621;SDS011;60665;53.506;9.582;2023-10-08T02:45:48;3.53;;;1.05;;
72621;SDS011;60665;53.506;9.582;2023-10-08T02:48:14;8.23;;;1.20;;
72621;SDS011;60665;53.506;9.582;2023-10-08T02:50:44;5.88;;;1.05;;
72621;SDS011;60665;53.506;9.582;2023-10-08T02:53:10;3.50;;;0.98;;
72621;SDS011;60665;53.506;9.582;2023-10-08T02:55:39;6.05;;;1.17;;
72621;SDS011;60665;53.506;9.582;2023-10-08T02:58:09;4.75;;;1.13;;
72621;SDS011;60665;53.506;9.582;2023-10-08T03:00:44;6.50;;;1.20;;
72621;SDS011;60665;53.506;9.582;2023-10-08T03:03:17;4.15;;;1.10;;
72621;SDS011;60665;53.506;9.582;2023-10-08T03:05:48;4.53;;;1.10;;
72621;SDS011;60665;53.506;9.582;2023-10-08T03:08:18;7.78;;;1.40;;
72621;SDS011;60665;53.506;9.582;2023-10-08T03:10:45;7.07;;;1.10;;
72621;SDS011;60665;53.506;9.582;2023-10-08T03:13:11;4.07;;;1.13;;
72621;SDS011;60665;53.506;9.582;2023-10-08T03:15:38;5.40;;;1.20;;
72621;SDS011;60665;53.506;9.582;2023-10-08T03:18:06;5.10;;;1.20;;
72621;SDS011;60665;53.506;9.582;2023-10-08T03:20:39;4.22;;;1.20;;
72621;SDS011;60665;53.506;9.582;2023-10-08T03:23:14;4.50;;;0.90;;
72621;SDS011;60665;53.506;9.582;2023-10-08T03:25:54;4.55;;;1.40;;
72621;SDS011;60665;53.506;9.582;2023-10-08T03:28:36;4.18;;;1.15;;
72621;SDS011;60665;53.506;9.582;2023-10-08T03:31:02;3.38;;;0.88;;
72621;SDS011;60665;53.506;9.582;2023-10-08T03:33:39;6.63;;;0.90;;
72621;SDS011;60665;53.506;9.582;2023-10-08T03:36:05;3.78;;;0.90;;
72621;SDS011;60665;53.506;9.582;2023-10-08T03:38:39;3.30;;;1.00;;
72621;SDS011;60665;53.506;9.582;2023-10-08T03:41:24;4.50;;;1.10;;
72621;SDS011;60665;53.506;9.582;2023-10-08T03:43:53;5.63;;;0.95;;
72621;SDS011;60665;53.506;9.582;2023-10-08T03:46:31;4.93;;;1.10;;
72621;SDS011;60665;53.506;9.582;2023-10-08T03:49:04;5.65;;;1.17;;
72621;SDS011;60665;53.506;9.582;2023-10-08T03:51:39;4.50;;;1.08;;
72621;SDS011;60665;53.506;9.582;2023-10-08T03:54:08;4.10;;;1.05;;
72621;SDS011;60665;53.506;9.582;2023-10-08T03:56:39;4.80;;;1.00;;
72621;SDS011;60665;53.506;9.582;2023-10-08T03:59:06;4.97;;;1.00;;
72621;SDS011;60665;53.506;9.582;2023-10-08T04:02:01;3.92;;;1.23;;
72621;SDS011;60665;53.506;9.582;2023-10-08T04:04:41;4.57;;;1.10;;
72621;SDS011;60665;53.506;9.582;2023-10-08T04:07:19;4.13;;;1.10;;
72621;SDS011;60665;53.506;9.582;2023-10-08T04:10:01;4.80;;;1.02;;
72621;SDS011;60665;53.506;9.582;2023-10-08T04:12:36;4.10;;;1.23;;
72621;SDS011;60665;53.506;9.582;2023-10-08T04:15:08;2.85;;;0.82;;
72621;SDS011;60665;53.506;9.582;2023-10-08T04:17:38;7.32;;;1.02;;
72621;SDS011;60665;53.506;9.582;2023-10-08T04:20:13;3.85;;;0.85;;
72621;SDS011;60665;53.506;9.582;2023-10-08T04:23:09;4.38;;;0.95;;
72621;SDS011;60665;53.506;9.582;2023-10-08T04:25:46;3.25;;;0.80;;
72621;SDS011;60665;53.506;9.582;2023-10-08T04:28:18;3.22;;;0.93;;
72621;SDS011;60665;53.506;9.582;2023-10-08T04:30:45;3.70;;;0.95;;
72621;SDS011;60665;53.506;9.582;2023-10-08T04:33:13;3.00;;;1.00;;
72621;SDS011;60665;53.506;9.582;2023-10-08T04:35:41;2.50;;;0.80;;
72621;SDS011;60665;53.506;9.582;2023-10-08T04:38:17;6.10;;;1.00;;
72621;SDS011;60665;53.506;9.582;2023-10-08T04:40:46;5.38;;;1.35;;
72621;SDS011;60665;53.506;9.582;2023-10-08T04:43:19;4.93;;;1.40;;
72621;SDS011;60665;53.506;9.582;2023-10-08T04:45:55;5.15;;;0.88;;
72621;SDS011;60665;53.506;9.582;2023-10-08T04:48:22;4.68;;;1.00;;
72621;SDS011;60665;53.506;9.582;2023-10-08T04:50:52;3.50;;;1.00;;
72621;SDS011;60665;53.506;9.582;2023-10-08T04:53:27;5.68;;;1.00;;
72621;SDS011;60665;53.506;9.582;2023-10-08T04:55:58;5.20;;;1.10;;
72621;SDS011;60665;53.506;9.582;2023-10-08T04:58:39;8.38;;;1.38;;
72621;SDS011;60665;53.506;9.582;2023-10-08T05:01:08;4.72;;;1.17;;
72621;SDS011;60665;53.506;9.582;2023-10-08T05:03:47;4.07;;;1.20;;
72621;SDS011;60665;53.506;9.582;2023-10-08T05:06:23;5.30;;;1.00;;
72621;SDS011;60665;53.506;9.582;2023-10-08T05:09:09;4.35;;;0.93;;
72621;SDS011;60665;53.506;9.582;2023-10-08T05:11:45;5.13;;;1.33;;
72621;SDS011;60665;53.506;9.582;2023-10-08T05:14:31;4.00;;;1.08;;
72621;SDS011;60665;53.506;9.582;2023-10-08T05:16:57;4.28;;;1.17;;
72621;SDS011;60665;53.506;9.582;2023-10-08T05:19:28;5.05;;;1.13;;
72621;SDS011;60665;53.506;9.582;2023-10-08T05:22:09;4.22;;;0.95;;
72621;SDS011;60665;53.506;9.582;2023-10-08T05:24:54;5.30;;;0.90;;
72621;SDS011;60665;53.506;9.582;2023-10-08T05:27:41;6.28;;;1.00;;
72621;SDS011;60665;53.506;9.582;2023-10-08T05:30:18;3.53;;;0.88;;
72621;SDS011;60665;53.506;9.582;2023-10-08T05:32:50;3.00;;;0.80;;
72621;SDS011;60665;53.506;9.582;2023-10-08T05:35:36;3.75;;;0.98;;
72621;SDS011;60665;53.506;9.582;2023-10-08T05:38:11;4.43;;;1.00;;
72621;SDS011;60665;53.506;9.582;2023-10-08T05:40:39;4.47;;;0.88;;
72621;SDS011;60665;53.506;9.582;2023-10-08T05:43:30;5.80;;;1.85;;
72621;SDS011;60665;53.506;9.582;2023-10-08T05:46:02;4.78;;;1.10;;
72621;SDS011;60665;53.506;9.582;2023-10-08T05:48:50;4.88;;;0.90;;
72621;SDS011;60665;53.506;9.582;2023-10-08T05:51:39;4.13;;;0.85;;
72621;SDS011;60665;53.506;9.582;2023-10-08T05:54:19;3.65;;;0.80;;
72621;SDS011;60665;53.506;9.582;2023-10-08T05:57:13;3.70;;;0.90;;
72621;SDS011;60665;53.506;9.582;2023-10-08T05:59:41;3.00;;;0.80;;
72621;SDS011;60665;53.506;9.582;2023-10-08T06:02:20;4.25;;;0.70;;
72621;SDS011;60665;53.506;9.582;2023-10-08T06:05:14;3.95;;;1.00;;
72621;SDS011;60665;53.506;9.582;2023-10-08T06:07:49;1.88;;;0.60;;
72621;SDS011;60665;53.506;9.582;2023-10-08T06:10:19;3.47;;;0.77;;
72621;SDS011;60665;53.506;9.582;2023-10-08T06:12:58;3.25;;;0.82;;
72621;SDS011;60665;53.506;9.582;2023-10-08T06:15:55;2.45;;;0.82;;
72621;SDS011;60665;53.506;9.582;2023-10-08T06:20:54;4.78;;;0.90;;
72621;SDS011;60665;53.506;9.582;2023-10-08T06:23:23;4.32;;;1.08;;
72621;SDS011;60665;53.506;9.582;2023-10-08T06:25:50;6.28;;;1.25;;
72621;SDS011;60665;53.506;9.582;2023-10-08T06:28:21;4.20;;;1.10;;
72621;SDS011;60665;53.506;9.582;2023-10-08T06:30:51;6.10;;;0.90;;
72621;SDS011;60665;53.506;9.582;2023-10-08T06:33:21;3.63;;;1.27;;
72621;SDS011;60665;53.506;9.582;2023-10-08T06:35:50;3.95;;;0.80;;
72621;SDS011;60665;53.506;9.582;2023-10-08T06:38:34;4.28;;;1.00;;
72621;SDS011;60665;53.506;9.582;2023-10-08T06:41:00;4.88;;;0.85;;
72621;SDS011;60665;53.506;9.582;2023-10-08T06:43:26;3.50;;;0.90;;
72621;SDS011;60665;53.506;9.582;2023-10-08T06:45:52;5.43;;;0.98;;
72621;SDS011;60665;53.506;9.582;2023-10-08T06:48:23;8.25;;;1.00;;
72621;SDS011;60665;53.506;9.582;2023-10-08T06:50:49;3.38;;;1.00;;
72621;SDS011;60665;53.506;9.582;2023-10-08T06:53:16;4.72;;;0.88;;
72621;SDS011;60665;53.506;9.582;2023-10-08T06:55:43;11.02;;;2.35;;
72621;SDS011;60665;53.506;9.582;2023-10-08T06:58:13;5.90;;;1.48;;
72621;SDS011;60665;53.506;9.582;2023-10-08T07:00:40;5.63;;;0.95;;
72621;SDS011;60665;53.506;9.582;2023-10-08T07:03:11;4.10;;;0.93;;
72621;SDS011;60665;53.506;9.582;2023-10-08T07:05:40;5.03;;;1.02;;
72621;SDS011;60665;53.506;9.582;2023-10-08T07:08:10;3.30;;;0.80;;
72621;SDS011;60665;53.506;9.582;2023-10-08T07:10:38;4.10;;;0.73;;
72621;SDS011;60665;53.506;9.582;2023-10-08T07:13:06;3.85;;;0.73;;
72621;SDS011;60665;53.506;9.582;2023-10-08T07:15:33;2.60;;;0.90;;
72621;SDS011;60665;53.506;9.582;2023-10-08T07:18:03;3.33;;;0.90;;
72621;SDS011;60665;53.506;9.582;2023-10-08T07:20:37;3.13;;;1.00;;
72621;SDS011;60665;53.506;9.582;2023-10-08T07:23:07;6.85;;;0.90;;
72621;SDS011;60665;53.506;9.582;2023-10-08T07:25:52;4.07;;;0.68;;
72621;SDS011;60665;53.506;9.582;2023-10-08T07:28:27;3.88;;;0.68;;
72621;SDS011;60665;53.506;9.582;2023-10-08T07:30:54;4.32;;;1.30;;
72621;SDS011;60665;53.506;9.582;2023-10-08T07:33:20;4.55;;;0.95;;
72621;SDS011;60665;53.506;9.582;2023-10-08T07:35:50;3.83;;;0.77;;
72621;SDS011;60665;53.506;9.582;2023-10-08T07:38:38;11.07;;;1.02;;
72621;SDS011;60665;53.506;9.582;2023-10-08T07:43:32;5.25;;;0.90;;
72621;SDS011;60665;53.506;9.582;2023-10-08T07:45:58;8.43;;;0.98;;
72621;SDS011;60665;53.506;9.582;2023-10-08T07:48:24;4.40;;;0.88;;
72621;SDS011;60665;53.506;9.582;2023-10-08T07:50:54;5.65;;;0.90;;
72621;SDS011;60665;53.506;9.582;2023-10-08T07:53:22;3.65;;;1.00;;
72621;SDS011;60665;53.506;9.582;2023-10-08T07:55:50;5.20;;;0.90;;
72621;SDS011;60665;53.506;9.582;2023-10-08T07:58:16;3.60;;;0.70;;
72621;SDS011;60665;53.506;9.582;2023-10-08T08:00:43;5.00;;;0.88;;
72621;SDS011;60665;53.506;9.582;2023-10-08T08:03:18;6.85;;;1.30;;
72621;SDS011;60665;53.506;9.582;2023-10-08T08:05:44;6.43;;;0.73;;
72621;SDS011;60665;53.506;9.582;2023-10-08T08:08:10;5.82;;;0.93;;
72621;SDS011;60665;53.506;9.582;2023-10-08T08:10:39;6.68;;;1.00;;
72621;SDS011;60665;53.506;9.582;2023-10-08T08:13:07;4.65;;;0.70;;
72621;SDS011;60665;53.506;9.582;2023-10-08T08:15:33;4.40;;;1.02;;
72621;SDS011;60665;53.506;9.582;2023-10-08T08:18:01;2.67;;;0.68;;
72621;SDS011;60665;53.506;9.582;2023-10-08T08:20:30;7.25;;;0.98;;
72621;SDS011;60665;53.506;9.582;2023-10-08T08:23:08;6.10;;;1.08;;
72621;SDS011;60665;53.506;9.582;2023-10-08T08:25:38;5.60;;;0.82;;
72621;SDS011;60665;53.506;9.582;2023-10-08T08:28:22;6.63;;;1.10;;
72621;SDS011;60665;53.506;9.582;2023-10-08T08:30:50;4.40;;;1.13;;
72621;SDS011;60665;53.506;9.582;2023-10-08T08:33:17;4.75;;;0.90;;
72621;SDS011;60665;53.506;9.582;2023-10-08T08:35:47;6.90;;;0.90;;
72621;SDS011;60665;53.506;9.582;2023-10-08T08:38:31;5.60;;;1.15;;
72621;SDS011;60665;53.506;9.582;2023-10-08T08:41:03;10.23;;;1.30;;
72621;SDS011;60665;53.506;9.582;2023-10-08T08:43:35;3.92;;;0.80;;
72621;SDS011;60665;53.506;9.582;2023-10-08T08:46:04;4.82;;;0.98;;
72621;SDS011;60665;53.506;9.582;2023-10-08T08:48:39;4.00;;;0.80;;
72621;SDS011;60665;53.506;9.582;2023-10-08T08:51:05;4.97;;;0.90;;
72621;SDS011;60665;53.506;9.582;2023-10-08T08:53:32;4.43;;;0.70;;
72621;SDS011;60665;53.506;9.582;2023-10-08T08:55:59;2.83;;;0.70;;
72621;SDS011;60665;53.506;9.582;2023-10-08T08:58:29;3.47;;;0.90;;
72621;SDS011;60665;53.506;9.582;2023-10-08T09:00:56;5.10;;;0.70;;
72621;SDS011;60665;53.506;9.582;2023-10-08T09:03:23;4.97;;;0.73;;
72621;SDS011;60665;53.506;9.582;2023-10-08T09:05:55;2.78;;;0.70;;
72621;SDS011;60665;53.506;9.582;2023-10-08T09:08:21;3.10;;;0.52;;
72621;SDS011;60665;53.506;9.582;2023-10-08T09:10:49;3.80;;;0.50;;
72621;SDS011;60665;53.506;9.582;2023-10-08T09:13:21;2.20;;;0.70;;
72621;SDS011;60665;53.506;9.582;2023-10-08T09:15:50;2.92;;;0.52;;
72621;SDS011;60665;53.506;9.582;2023-10-08T09:18:16;5.88;;;1.25;;
72621;SDS011;60665;53.506;9.582;2023-10-08T09:20:42;5.20;;;0.80;;
72621;SDS011;60665;53.506;9.582;2023-10-08T09:23:13;4.15;;;0.85;;
72621;SDS011;60665;53.506;9.582;2023-10-08T09:25:43;2.70;;;0.50;;
72621;SDS011;60665;53.506;9.582;2023-10-08T09:28:09;5.45;;;0.70;;
72621;SDS011;60665;53.506;9.582;2023-10-08T09:30:38;4.95;;;0.70;;
72621;SDS011;60665;53.506;9.582;2023-10-08T09:33:08;6.00;;;0.80;;
72621;SDS011;60665;53.506;9.582;2023-10-08T09:35:34;3.00;;;0.65;;
72621;SDS011;60665;53.506;9.582;2023-10-08T09:38:05;8.82;;;1.00;;
72621;SDS011;60665;53.506;9.582;2023-10-08T09:40:38;4.07;;;0.73;;
72621;SDS011;60665;53.506;9.582;2023-10-08T09:43:05;5.18;;;0.73;;
72621;SDS011;60665;53.506;9.582;2023-10-08T09:45:33;3.13;;;0.70;;
72621;SDS011;60665;53.506;9.582;2023-10-08T09:48:00;3.67;;;0.70;;
72621;SDS011;60665;53.506;9.582;2023-10-08T09:50:30;2.75;;;0.80;;
72621;SDS011;60665;53.506;9.582;2023-10-08T09:53:11;4.28;;;0.70;;
72621;SDS011;60665;53.506;9.582;2023-10-08T09:55:46;2.60;;;0.65;;
72621;SDS011;60665;53.506;9.582;2023-10-08T09:58:19;3.45;;;0.80;;
72621;SDS011;60665;53.506;9.582;2023-10-08T10:00:47;3.22;;;1.23;;
72621;SDS011;60665;53.506;9.582;2023-10-08T10:03:13;4.32;;;0.90;;
72621;SDS011;60665;53.506;9.582;2023-10-08T10:05:39;3.88;;;1.00;;
72621;SDS011;60665;53.506;9.582;2023-10-08T10:08:05;3.42;;;0.77;;
72621;SDS011;60665;53.506;9.582;2023-10-08T10:10:32;4.07;;;1.30;;
72621;SDS011;60665;53.506;9.582;2023-10-08T10:13:03;4.88;;;0.85;;
72621;SDS011;60665;53.506;9.582;2023-10-08T10:15:31;5.22;;;1.65;;
72621;SDS011;60665;53.506;9.582;2023-10-08T10:18:08;4.00;;;1.45;;
72621;SDS011;60665;53.506;9.582;2023-10-08T10:20:34;5.07;;;1.05;;
72621;SDS011;60665;53.506;9.582;2023-10-08T10:23:00;3.45;;;0.80;;
72621;SDS011;60665;53.506;9.582;2023-10-08T10:26:01;4.20;;;0.90;;
72621;SDS011;60665;53.506;9.582;2023-10-08T10:28:27;4.30;;;0.90;;
72621;SDS011;60665;53.506;9.582;2023-10-08T10:30:54;4.43;;;0.80;;
72621;SDS011;60665;53.506;9.582;2023-10-08T10:33:20;3.22;;;0.70;;
72621;SDS011;60665;53.506;9.582;2023-10-08T10:35:53;5.82;;;0.90;;
72621;SDS011;60665;53.506;9.582;2023-10-08T10:38:19;3.72;;;0.90;;
72621;SDS011;60665;53.506;9.582;2023-10-08T10:40:49;5.07;;;0.85;;
72621;SDS011;60665;53.506;9.582;2023-10-08T10:43:23;5.43;;;0.93;;
72621;SDS011;60665;53.506;9.582;2023-10-08T10:45:57;3.28;;;0.70;;
72621;SDS011;60665;53.506;9.582;2023-10-08T10:48:23;4.75;;;0.80;;
72621;SDS011;60665;53.506;9.582;2023-10-08T10:50:51;4.57;;;0.70;;
72621;SDS011;60665;53.506;9.582;2023-10-08T10:56:11;7.85;;;2.05;;
72621;SDS011;60665;53.506;9.582;2023-10-08T11:01:08;4.03;;;1.00;;
72621;SDS011;60665;53.506;9.582;2023-10-08T11:03:47;4.03;;;1.00;;
72621;SDS011;60665;53.506;9.582;2023-10-08T11:06:16;5.00;;;0.98;;
72621;SDS011;60665;53.506;9.582;2023-10-08T11:08:47;3.55;;;0.88;;
72621;SDS011;60665;53.506;9.582;2023-10-08T11:11:17;4.30;;;0.70;;
72621;SDS011;60665;53.506;9.582;2023-10-08T11:13:43;6.25;;;1.60;;
72621;SDS011;60665;53.506;9.582;2023-10-08T11:16:12;3.28;;;0.63;;
72621;SDS011;60665;53.506;9.582;2023-10-08T11:18:45;3.83;;;0.70;;
72621;SDS011;60665;53.506;9.582;2023-10-08T11:21:12;3.95;;;1.20;;
72621;SDS011;60665;53.506;9.582;2023-10-08T11:23:44;5.15;;;0.98;;
72621;SDS011;60665;53.506;9.582;2023-10-08T11:26:37;4.68;;;0.80;;
72621;SDS011;60665;53.506;9.582;2023-10-08T11:29:19;5.85;;;0.80;;
72621;SDS011;60665;53.506;9.582;2023-10-08T11:31:50;4.88;;;0.80;;
72621;SDS011;60665;53.506;9.582;2023-10-08T11:34:16;4.22;;;0.95;;
72621;SDS011;60665;53.506;9.582;2023-10-08T11:36:44;2.72;;;0.80;;
72621;SDS011;60665;53.506;9.582;2023-10-08T11:39:18;4.22;;;1.27;;
72621;SDS011;60665;53.506;9.582;2023-10-08T11:41:58;2.15;;;0.60;;
72621;SDS011;60665;53.506;9.582;2023-10-08T11:44:29;3.50;;;1.33;;
72621;SDS011;60665;53.506;9.582;2023-10-08T11:46:55;4.03;;;0.82;;
72621;SDS011;60665;53.506;9.582;2023-10-08T11:49:29;3.88;;;0.75;;
72621;SDS011;60665;53.506;9.582;2023-10-08T11:51:57;3.33;;;1.00;;
72621;SDS011;60665;53.506;9.582;2023-10-08T11:54:23;2.13;;;0.77;;
72621;SDS011;60665;53.506;9.582;2023-10-08T11:56:48;3.28;;;0.80;;
72621;SDS011;60665;53.506;9.582;2023-10-08T11:59:14;3.47;;;1.00;;
72621;SDS011;60665;53.506;9.582;2023-10-08T12:01:43;2.60;;;0.90;;
72621;SDS011;60665;53.506;9.582;2023-10-08T12:04:08;4.82;;;1.02;;
72621;SDS011;60665;53.506;9.582;2023-10-08T12:06:40;3.85;;;1.20;;
72621;SDS011;60665;53.506;9.582;2023-10-08T12:09:12;3.75;;;0.70;;
72621;SDS011;60665;53.506;9.582;2023-10-08T12:11:38;3.25;;;0.75;;
72621;SDS011;60665;53.506;9.582;2023-10-08T12:14:04;5.47;;;1.02;;
72621;SDS011;60665;53.506;9.582;2023-10-08T12:16:30;3.53;;;0.80;;
72621;SDS011;60665;53.506;9.582;2023-10-08T12:19:00;5.88;;;0.70;;
72621;SDS011;60665;53.506;9.582;2023-10-08T12:21:26;4.68;;;1.05;;
72621;SDS011;60665;53.506;9.582;2023-10-08T12:23:54;2.15;;;0.70;;
72621;SDS011;60665;53.506;9.582;2023-10-08T12:26:20;3.05;;;0.60;;
72621;SDS011;60665;53.506;9.582;2023-10-08T12:28:46;3.42;;;0.70;;
72621;SDS011;60665;53.506;9.582;2023-10-08T12:31:14;5.15;;;1.00;;
72621;SDS011;60665;53.506;9.582;2023-10-08T12:33:47;3.67;;;0.82;;
72621;SDS011;60665;53.506;9.582;2023-10-08T12:36:13;4.18;;;0.90;;
72621;SDS011;60665;53.506;9.582;2023-10-08T12:38:41;3.67;;;0.82;;
72621;SDS011;60665;53.506;9.582;2023-10-08T12:41:08;2.63;;;0.75;;
72621;SDS011;60665;53.506;9.582;2023-10-08T12:43:43;4.43;;;0.90;;
72621;SDS011;60665;53.506;9.582;2023-10-08T12:46:11;3.92;;;0.60;;
72621;SDS011;60665;53.506;9.582;2023-10-08T12:48:43;5.95;;;0.70;;
72621;SDS011;60665;53.506;9.582;2023-10-08T12:51:12;4.30;;;0.90;;
72621;SDS011;60665;53.506;9.582;2023-10-08T12:53:37;4.32;;;0.50;;
72621;SDS011;60665;53.506;9.582;2023-10-08T12:56:07;1.80;;;0.47;;
72621;SDS011;60665;53.506;9.582;2023-10-08T12:58:40;5.15;;;0.80;;
72621;SDS011;60665;53.506;9.582;2023-10-08T13:01:13;2.58;;;0.57;;
72621;SDS011;60665;53.506;9.582;2023-10-08T13:03:41;5.20;;;0.90;;
72621;SDS011;60665;53.506;9.582;2023-10-08T13:11:04;5.73;;;0.90;;
72621;SDS011;60665;53.506;9.582;2023-10-08T13:13:30;4.97;;;0.63;;
72621;SDS011;60665;53.506;9.582;2023-10-08T13:15:57;3.38;;;0.70;;
72621;SDS011;60665;53.506;9.582;2023-10-08T13:18:25;1.88;;;0.40;;
72621;SDS011;60665;53.506;9.582;2023-10-08T13:20:51;1.70;;;0.60;;
72621;SDS011;60665;53.506;9.582;2023-10-08T13:23:17;3.20;;;0.60;;
72621;SDS011;60665;53.506;9.582;2023-10-08T13:25:48;4.10;;;0.60;;
72621;SDS011;60665;53.506;9.582;2023-10-08T13:28:21;5.13;;;0.75;;
72621;SDS011;60665;53.506;9.582;2023-10-08T13:35:45;2.47;;;0.65;;
72621;SDS011;60665;53.506;9.582;2023-10-08T13:38:11;6.43;;;1.92;;
72621;SDS011;60665;53.506;9.582;2023-10-08T13:40:38;4.80;;;1.25;;
72621;SDS011;60665;53.506;9.582;2023-10-08T13:43:08;2.67;;;0.70;;
72621;SDS011;60665;53.506;9.582;2023-10-08T13:45:36;3.38;;;0.70;;
72621;SDS011;60665;53.506;9.582;2023-10-08T13:48:04;5.90;;;0.80;;
72621;SDS011;60665;53.506;9.582;2023-10-08T13:50:30;3.75;;;0.75;;
72621;SDS011;60665;53.506;9.582;2023-10-08T13:52:56;2.17;;;0.50;;
72621;SDS011;60665;53.506;9.582;2023-10-08T13:55:23;1.58;;;0.55;;
72621;SDS011;60665;53.506;9.582;2023-10-08T13:57:50;3.97;;;0.65;;
72621;SDS011;60665;53.506;9.582;2023-10-08T14:00:19;4.05;;;0.73;;
72621;SDS011;60665;53.506;9.582;2023-10-08T14:02:51;4.00;;;0.40;;
72621;SDS011;60665;53.506;9.582;2023-10-08T14:05:18;3.85;;;0.98;;
72621;SDS011;60665;53.506;9.582;2023-10-08T14:07:49;3.38;;;0.70;;
72621;SDS011;60665;53.506;9.582;2023-10-08T14:10:16;3.95;;;0.60;;
72621;SDS011;60665;53.506;9.582;2023-10-08T14:12:44;3.28;;;0.88;;
72621;SDS011;60665;53.506;9.582;2023-10-08T14:15:14;4.90;;;0.75;;
72621;SDS011;60665;53.506;9.582;2023-10-08T14:17:41;3.78;;;0.70;;
72621;SDS011;60665;53.506;9.582;2023-10-08T14:20:08;3.75;;;0.75;;
72621;SDS011;60665;53.506;9.582;2023-10-08T14:22:38;3.67;;;0.70;;
72621;SDS011;60665;53.506;9.582;2023-10-08T14:25:06;2.95;;;0.47;;
72621;SDS011;60665;53.506;9.582;2023-10-08T14:27:38;1.65;;;0.40;;
72621;SDS011;60665;53.506;9.582;2023-10-08T14:30:17;4.90;;;0.65;;
72621;SDS011;60665;53.506;9.582;2023-10-08T14:32:46;3.38;;;0.60;;
72621;SDS011;60665;53.506;9.582;2023-10-08T14:35:12;5.53;;;0.80;;
72621;SDS011;60665;53.506;9.582;2023-10-08T14:38:04;2.65;;;0.55;;
72621;SDS011;60665;53.506;9.582;2023-10-08T14:40:48;3.58;;;0.88;;
72621;SDS011;60665;53.506;9.582;2023-10-08T14:43:32;7.15;;;0.63;;
72621;SDS011;60665;53.506;9.582;2023-10-08T14:46:00;3.47;;;0.80;;
72621;SDS011;60665;53.506;9.582;2023-10-08T14:48:34;4.03;;;0.70;;
72621;SDS011;60665;53.506;9.582;2023-10-08T14:51:00;4.40;;;0.70;;
72621;SDS011;60665;53.506;9.582;2023-10-08T14:53:27;3.65;;;0.60;;
72621;SDS011;60665;53.506;9.582;2023-10-08T14:55:53;3.85;;;0.68;;
72621;SDS011;60665;53.506;9.582;2023-10-08T14:58:19;3.55;;;0.73;;
72621;SDS011;60665;53.506;9.582;2023-10-08T15:00:44;2.38;;;0.63;;
72621;SDS011;60665;53.506;9.582;2023-10-08T15:03:10;2.70;;;0.60;;
72621;SDS011;60665;53.506;9.582;2023-10-08T15:05:36;3.75;;;0.70;;
72621;SDS011;60665;53.506;9.582;2023-10-08T15:08:02;3.67;;;0.63;;
72621;SDS011;60665;53.506;9.582;2023-10-08T15:10:32;5.55;;;1.40;;
72621;SDS011;60665;53.506;9.582;2023-10-08T15:12:58;5.43;;;0.77;;
72621;SDS011;60665;53.506;9.582;2023-10-08T15:15:23;4.00;;;0.82;;
72621;SDS011;60665;53.506;9.582;2023-10-08T15:17:50;4.18;;;0.85;;
72621;SDS011;60665;53.506;9.582;2023-10-08T15:20:17;5.70;;;0.73;;
72621;SDS011;60665;53.506;9.582;2023-10-08T15:22:44;4.82;;;0.80;;
72621;SDS011;60665;53.506;9.582;2023-10-08T15:25:11;5.63;;;1.20;;
72621;SDS011;60665;53.506;9.582;2023-10-08T15:27:41;4.82;;;0.90;;
72621;SDS011;60665;53.506;9.582;2023-10-08T15:30:09;5.53;;;0.60;;